Time;durP1;ratioP1;P1;durP2;ratioP2;P2;SDS_P1;SDS_P2;PMS_P1;PMS_P2;Temp;Humidity;BMP_temperature;BMP_pressure;BME280_temperature;BME280_humidity;BME280_pressure;Samples;Min_cycle;Max_cycle;Signal;HPM_P1;HPM_P2
2022/01/27 00:05:33;;;;;;;44.63;27.73;;;;;;;;;;4994210;28;20534;-78
2022/01/27 00:13:01;;;;;;;45.17;27.63;;;;;;;;;;5072388;28;20056;-79
2022/01/27 00:15:33;;;;;;;42.20;25.83;;;;;;;;;;5071030;28;20048;-80
2022/01/27 00:18:03;;;;;;;42.45;27.95;;;;;;;;;;5072436;28;20040;-80
2022/01/27 00:20:31;;;;;;;47.25;27.75;;;;;;;;;;5071264;28;20087;-79
2022/01/27 00:22:57;;;;;;;45.33;27.23;;;;;;;;;;5072149;28;20045;-78
2022/01/27 00:25:23;;;;;;;45.65;28.08;;;;;;;;;;5072587;28;20094;-79
2022/01/27 00:27:49;;;;;;;43.78;29.40;;;;;;;;;;5076201;28;20041;-79
2022/01/27 00:30:16;;;;;;;43.72;25.95;;;;;;;;;;5076418;28;20154;-78
2022/01/27 00:32:42;;;;;;;46.00;28.63;;;;;;;;;;5076291;28;20099;-79
2022/01/27 00:35:08;;;;;;;47.47;27.20;;;;;;;;;;5074836;28;20052;-79
2022/01/27 00:37:34;;;;;;;45.60;28.08;;;;;;;;;;5076195;28;20084;-77
2022/01/27 00:40:00;;;;;;;41.13;25.75;;;;;;;;;;5076145;28;20075;-78
2022/01/27 00:42:28;;;;;;;45.80;27.60;;;;;;;;;;5076203;28;20036;-79
2022/01/27 00:44:55;;;;;;;42.05;25.98;;;;;;;;;;5076124;28;20102;-78
2022/01/27 00:47:21;;;;;;;44.80;28.50;;;;;;;;;;5075934;28;20513;-79
2022/01/27 00:49:47;;;;;;;45.15;27.95;;;;;;;;;;5075710;28;20040;-79
2022/01/27 00:52:20;;;;;;;46.15;27.02;;;;;;;;;;5075576;28;20079;-78
2022/01/27 00:54:47;;;;;;;49.88;27.58;;;;;;;;;;5081399;28;20068;-79
2022/01/27 00:57:25;;;;;;;40.88;25.48;;;;;;;;;;5116607;28;20059;-79
2022/01/27 00:59:57;;;;;;;46.17;28.05;;;;;;;;;;5098488;28;20046;-79
2022/01/27 01:07:38;;;;;;;45.08;27.92;;;;;;;;;;5116178;28;20043;-78
2022/01/27 01:15:40;;;;;;;44.47;28.73;;;;;;;;;;5115893;28;20058;-78
2022/01/27 01:32:10;;;;;;;43.35;26.73;;;;;;;;;;5115711;28;20051;-79
2022/01/27 01:34:43;;;;;;;44.92;26.13;;;;;;;;;;5115808;28;20043;-78
2022/01/27 01:37:09;;;;;;;39.13;23.85;;;;;;;;;;5097457;28;20047;-77
2022/01/27 01:39:37;;;;;;;43.05;26.45;;;;;;;;;;5115190;28;20048;-78
2022/01/27 01:42:10;;;;;;;40.30;22.58;;;;;;;;;;5115543;28;20043;-78
2022/01/27 01:44:36;;;;;;;42.40;25.88;;;;;;;;;;5115450;28;20098;-78
2022/01/27 01:47:03;;;;;;;40.75;25.17;;;;;;;;;;5115359;28;20602;-80
2022/01/27 01:49:29;;;;;;;38.40;24.85;;;;;;;;;;5115469;28;20044;-79
2022/01/27 01:51:57;;;;;;;41.15;24.50;;;;;;;;;;5080071;28;20054;-78
2022/01/27 01:54:24;;;;;;;42.10;24.75;;;;;;;;;;5115276;28;20043;-78
2022/01/27 01:56:50;;;;;;;42.60;25.75;;;;;;;;;;5115118;28;20134;-79
2022/01/27 01:59:16;;;;;;;42.17;25.88;;;;;;;;;;5115308;28;20093;-78
2022/01/27 02:01:42;;;;;;;43.80;24.73;;;;;;;;;;5115462;28;20118;-79
2022/01/27 02:04:10;;;;;;;40.63;25.98;;;;;;;;;;5080068;28;20135;-78
2022/01/27 02:06:47;;;;;;;39.15;24.67;;;;;;;;;;5115199;28;20122;-80
2022/01/27 02:09:26;;;;;;;45.28;25.55;;;;;;;;;;5096784;28;20494;-78
2022/01/27 02:20:11;;;;;;;42.58;26.38;;;;;;;;;;5114937;28;20053;-78
2022/01/27 02:22:37;;;;;;;40.05;25.80;;;;;;;;;;5114532;28;20078;-79
2022/01/27 02:25:04;;;;;;;43.97;25.65;;;;;;;;;;5114744;28;20047;-79
2022/01/27 02:27:30;;;;;;;41.35;26.88;;;;;;;;;;5114632;28;20047;-79
2022/01/27 02:29:56;;;;;;;42.13;26.48;;;;;;;;;;5114766;28;20050;-79
2022/01/27 02:32:24;;;;;;;42.25;26.50;;;;;;;;;;5096299;28;20044;-79
2022/01/27 02:34:50;;;;;;;41.60;25.33;;;;;;;;;;5114576;28;20047;-79
2022/01/27 02:37:16;;;;;;;40.75;25.85;;;;;;;;;;5114604;28;20073;-79
2022/01/27 02:39:42;;;;;;;39.45;23.95;;;;;;;;;;5114373;28;20502;-78
2022/01/27 02:42:16;;;;;;;40.80;23.95;;;;;;;;;;5114467;28;20089;-79
2022/01/27 02:44:48;;;;;;;38.40;23.88;;;;;;;;;;5114256;28;20043;-78
2022/01/27 02:47:15;;;;;;;38.90;24.23;;;;;;;;;;5096107;28;20051;-79
2022/01/27 02:49:41;;;;;;;36.53;22.90;;;;;;;;;;5114375;28;20043;-78
2022/01/27 02:52:08;;;;;;;39.65;25.50;;;;;;;;;;5114040;28;20476;-78
2022/01/27 02:54:34;;;;;;;39.50;24.17;;;;;;;;;;5113853;28;20096;-79
2022/01/27 02:57:00;;;;;;;45.92;25.42;;;;;;;;;;5113991;28;20052;-77
2022/01/27 02:59:27;;;;;;;40.63;24.67;;;;;;;;;;5113929;28;20051;-79
2022/01/27 03:01:53;;;;;;;39.83;25.65;;;;;;;;;;5096302;28;20123;-79
2022/01/27 03:04:20;;;;;;;40.33;25.23;;;;;;;;;;5114163;28;20062;-79
2022/01/27 03:06:46;;;;;;;42.78;23.73;;;;;;;;;;5113981;28;20043;-78
2022/01/27 03:09:13;;;;;;;43.35;27.15;;;;;;;;;;5113957;28;20104;-80
2022/01/27 03:11:39;;;;;;;43.95;26.27;;;;;;;;;;5113885;28;20539;-79
2022/01/27 03:14:06;;;;;;;39.00;24.92;;;;;;;;;;5113547;28;20481;-79
2022/01/27 03:16:32;;;;;;;40.97;25.60;;;;;;;;;;5113740;28;20054;-79
2022/01/27 03:18:58;;;;;;;42.00;25.35;;;;;;;;;;5113780;28;20051;-80
2022/01/27 03:21:24;;;;;;;41.90;26.00;;;;;;;;;;5113692;28;20434;-79
2022/01/27 03:23:50;;;;;;;40.28;25.50;;;;;;;;;;5113308;28;20040;-80
2022/01/27 03:26:17;;;;;;;43.97;25.80;;;;;;;;;;5113567;28;20044;-80
2022/01/27 03:28:43;;;;;;;42.05;27.08;;;;;;;;;;5113340;28;20051;-79
2022/01/27 03:31:09;;;;;;;37.83;25.17;;;;;;;;;;5113457;28;20101;-81
2022/01/27 03:33:36;;;;;;;43.33;26.55;;;;;;;;;;5113249;28;20065;-80
2022/01/27 03:36:02;;;;;;;41.55;25.58;;;;;;;;;;5095127;28;20452;-80
2022/01/27 03:38:28;;;;;;;43.58;26.38;;;;;;;;;;5113575;28;20127;-79
2022/01/27 03:40:54;;;;;;;40.42;25.50;;;;;;;;;;5113134;28;20074;-80
2022/01/27 03:43:20;;;;;;;38.35;25.13;;;;;;;;;;5113164;28;20043;-80
2022/01/27 03:45:46;;;;;;;44.05;26.10;;;;;;;;;;5113353;28;20035;-78
2022/01/27 03:48:12;;;;;;;39.47;25.35;;;;;;;;;;5078586;28;20069;-79
2022/01/27 03:50:39;;;;;;;40.30;23.50;;;;;;;;;;5113083;28;20125;-79
2022/01/27 03:53:05;;;;;;;42.30;25.88;;;;;;;;;;5113043;28;20035;-79
2022/01/27 03:55:31;;;;;;;42.95;25.52;;;;;;;;;;5113142;28;20047;-79
2022/01/27 03:57:57;;;;;;;42.10;24.85;;;;;;;;;;5112884;28;20051;-80
2022/01/27 04:00:23;;;;;;;42.15;25.35;;;;;;;;;;5112992;28;20391;-79
2022/01/27 04:03:02;;;;;;;39.47;24.75;;;;;;;;;;5112899;28;20044;-78
2022/01/27 04:05:34;;;;;;;42.60;23.95;;;;;;;;;;5112950;28;20538;-78
2022/01/27 04:08:00;;;;;;;39.88;25.08;;;;;;;;;;5094690;28;20052;-79
2022/01/27 04:10:27;;;;;;;43.22;27.73;;;;;;;;;;5112854;28;20040;-79
2022/01/27 04:12:53;;;;;;;48.05;27.92;;;;;;;;;;5113056;28;20039;-78
2022/01/27 04:15:19;;;;;;;41.10;23.83;;;;;;;;;;5094616;28;20047;-78
2022/01/27 04:17:45;;;;;;;43.58;28.02;;;;;;;;;;5112725;28;20043;-78
2022/01/27 04:20:11;;;;;;;45.17;26.88;;;;;;;;;;5094836;28;20043;-79
2022/01/27 04:22:37;;;;;;;42.75;27.23;;;;;;;;;;5112760;28;20423;-79
2022/01/27 04:25:03;;;;;;;48.25;29.15;;;;;;;;;;5094749;28;20044;-79
2022/01/27 04:27:33;;;;;;;42.20;27.45;;;;;;;;;;5094776;28;20400;-79
2022/01/27 04:29:59;;;;;;;43.45;26.20;;;;;;;;;;5112933;28;20184;-79
2022/01/27 04:32:32;;;;;;;44.35;27.65;;;;;;;;;;5112758;28;20050;-79
2022/01/27 04:35:03;;;;;;;44.35;26.70;;;;;;;;;;5094392;28;20609;-79
2022/01/27 04:37:32;;;;;;;43.13;24.25;;;;;;;;;;5112482;28;20047;-80
2022/01/27 04:40:08;;;;;;;43.97;25.45;;;;;;;;;;5112609;28;20392;-78
2022/01/27 04:43:05;;;;;;;44.10;26.23;;;;;;;;;;5112694;28;20043;-80
2022/01/27 04:45:26;;;;;;;44.45;25.55;;;;;;;;;;5111963;28;20043;-80
2022/01/27 04:47:58;;;;;;;45.50;27.40;;;;;;;;;;5112413;28;20093;-79
2022/01/27 04:50:27;;;;;;;41.25;24.80;;;;;;;;;;5112654;28;20400;-79
2022/01/27 04:52:55;;;;;;;42.13;25.85;;;;;;;;;;5112398;28;20040;-78
2022/01/27 04:55:23;;;;;;;42.47;26.95;;;;;;;;;;5112332;28;20476;-79
2022/01/27 04:57:56;;;;;;;45.58;26.20;;;;;;;;;;5112376;28;20500;-79
2022/01/27 05:00:22;;;;;;;40.53;24.10;;;;;;;;;;5112289;28;20087;-78
2022/01/27 05:02:56;;;;;;;43.60;24.50;;;;;;;;;;5077839;28;20048;-78
2022/01/27 05:05:22;;;;;;;44.58;25.13;;;;;;;;;;5112623;28;20090;-78
2022/01/27 05:07:58;;;;;;;39.75;25.05;;;;;;;;;;5094613;28;20121;-80
2022/01/27 05:10:28;;;;;;;45.38;24.83;;;;;;;;;;5112398;28;20039;-78
2022/01/27 05:13:17;;;;;;;39.95;23.38;;;;;;;;;;5112847;28;20048;-79
2022/01/27 05:15:45;;;;;;;44.08;25.10;;;;;;;;;;5116196;28;20101;-77
2022/01/27 05:18:15;;;;;;;40.03;24.75;;;;;;;;;;5116046;28;20083;-79
2022/01/27 05:20:41;;;;;;;46.57;25.97;;;;;;;;;;5116227;28;20046;-79
2022/01/27 05:23:07;;;;;;;45.67;24.25;;;;;;;;;;5097742;28;20050;-79
2022/01/27 05:25:34;;;;;;;40.17;25.40;;;;;;;;;;5098191;28;20487;-80
2022/01/27 05:28:00;;;;;;;40.35;24.33;;;;;;;;;;5115934;28;20043;-79
2022/01/27 05:30:26;;;;;;;42.85;24.35;;;;;;;;;;5115999;28;20066;-79
2022/01/27 05:32:52;;;;;;;47.42;25.52;;;;;;;;;;5097653;28;20464;-79
2022/01/27 05:35:18;;;;;;;42.58;25.08;;;;;;;;;;5097633;28;20410;-78
2022/01/27 05:37:44;;;;;;;41.45;23.27;;;;;;;;;;5115595;28;20039;-79
2022/01/27 05:40:11;;;;;;;39.75;23.83;;;;;;;;;;5115715;28;20039;-79
2022/01/27 05:42:37;;;;;;;41.05;22.48;;;;;;;;;;5097502;28;20047;-79
2022/01/27 05:45:03;;;;;;;47.45;24.52;;;;;;;;;;5115575;28;20490;-80
2022/01/27 05:47:29;;;;;;;48.47;25.83;;;;;;;;;;5115656;28;20039;-79
2022/01/27 05:49:55;;;;;;;47.45;25.42;;;;;;;;;;5097338;28;20055;-79
2022/01/27 05:52:21;;;;;;;42.80;24.02;;;;;;;;;;5115491;28;20043;-78
2022/01/27 05:54:48;;;;;;;50.05;28.75;;;;;;;;;;5115143;28;20062;-78
2022/01/27 05:57:14;;;;;;;54.08;26.80;;;;;;;;;;5115371;28;20105;-78
2022/01/27 05:59:40;;;;;;;52.50;28.15;;;;;;;;;;5115115;28;20472;-78
2022/01/27 06:02:06;;;;;;;50.97;28.38;;;;;;;;;;5115372;28;20043;-79
2022/01/27 06:04:32;;;;;;;48.85;26.00;;;;;;;;;;5115203;28;20454;-80
2022/01/27 06:06:59;;;;;;;59.13;29.60;;;;;;;;;;5115026;28;20046;-80
2022/01/27 06:09:25;;;;;;;47.80;27.27;;;;;;;;;;5115272;28;20459;-78
2022/01/27 06:11:51;;;;;;;48.72;26.88;;;;;;;;;;5115068;28;20036;-78
2022/01/27 06:14:17;;;;;;;52.15;28.30;;;;;;;;;;5115085;28;20082;-79
2022/01/27 06:16:46;;;;;;;48.35;27.15;;;;;;;;;;5114916;28;20039;-78
2022/01/27 06:19:13;;;;;;;51.90;28.08;;;;;;;;;;5114987;28;20039;-80
2022/01/27 06:21:40;;;;;;;58.88;31.63;;;;;;;;;;5114630;28;20381;-78
2022/01/27 06:24:08;;;;;;;51.00;27.65;;;;;;;;;;5114479;28;20046;-79
2022/01/27 06:26:34;;;;;;;54.38;28.05;;;;;;;;;;5114863;28;20039;-78
2022/01/27 06:29:00;;;;;;;53.08;28.27;;;;;;;;;;5096395;28;20047;-79
2022/01/27 06:31:26;;;;;;;59.33;29.55;;;;;;;;;;5114556;28;20062;-79
2022/01/27 06:33:52;;;;;;;53.33;27.73;;;;;;;;;;5114228;28;20396;-80
2022/01/27 06:36:18;;;;;;;50.15;28.23;;;;;;;;;;5114801;28;20051;-79
2022/01/27 06:38:45;;;;;;;48.45;25.60;;;;;;;;;;5114485;28;20155;-79
2022/01/27 06:41:11;;;;;;;51.90;28.65;;;;;;;;;;5114856;28;20126;-78
2022/01/27 06:43:37;;;;;;;54.53;29.13;;;;;;;;;;5114444;28;20040;-80
2022/01/27 06:46:03;;;;;;;51.63;28.08;;;;;;;;;;5114434;28;20035;-79
2022/01/27 06:48:30;;;;;;;50.03;27.73;;;;;;;;;;5114339;28;20039;-80
2022/01/27 06:50:56;;;;;;;48.38;25.85;;;;;;;;;;5114157;28;20043;-78
2022/01/27 06:53:23;;;;;;;46.92;26.38;;;;;;;;;;5079375;28;20070;-78
2022/01/27 06:55:50;;;;;;;43.58;24.45;;;;;;;;;;5113778;28;20055;-79
2022/01/27 06:58:16;;;;;;;37.50;20.98;;;;;;;;;;5114204;28;20392;-78
2022/01/27 07:00:42;;;;;;;40.20;24.30;;;;;;;;;;5113955;28;20054;-80
2022/01/27 07:03:08;;;;;;;42.83;24.85;;;;;;;;;;5095872;28;20472;-78
2022/01/27 07:05:35;;;;;;;40.90;23.02;;;;;;;;;;5113923;28;20404;-79
2022/01/27 07:08:01;;;;;;;40.22;24.20;;;;;;;;;;5113899;28;20043;-79
2022/01/27 07:10:28;;;;;;;39.00;23.33;;;;;;;;;;5096166;28;20055;-79
2022/01/27 07:12:54;;;;;;;44.80;26.10;;;;;;;;;;5113953;28;20399;-79
2022/01/27 07:15:20;;;;;;;34.65;19.80;;;;;;;;;;5113848;28;20062;-80
2022/01/27 07:17:47;;;;;;;40.78;22.25;;;;;;;;;;5113670;28;20384;-78
2022/01/27 07:20:13;;;;;;;36.70;20.42;;;;;;;;;;5113945;28;20050;-79
2022/01/27 07:22:40;;;;;;;35.67;21.35;;;;;;;;;;5113575;28;20432;-79
2022/01/27 07:25:07;;;;;;;32.85;20.23;;;;;;;;;;5113721;28;20043;-80
2022/01/27 07:27:33;;;;;;;33.72;20.05;;;;;;;;;;5095465;28;20043;-78
2022/01/27 07:30:00;;;;;;;33.67;20.13;;;;;;;;;;5113573;28;20476;-79
2022/01/27 07:32:26;;;;;;;32.67;18.35;;;;;;;;;;5095528;28;20412;-79
2022/01/27 07:34:52;;;;;;;35.33;18.50;;;;;;;;;;5114364;27;20039;-80
2022/01/27 07:37:19;;;;;;;28.75;17.65;;;;;;;;;;5130568;27;20043;-80
2022/01/27 07:39:45;;;;;;;35.05;20.00;;;;;;;;;;5115853;27;20042;-80
2022/01/27 07:42:11;;;;;;;32.25;19.10;;;;;;;;;;5115733;27;20039;-79
2022/01/27 07:44:38;;;;;;;27.05;16.45;;;;;;;;;;5115481;27;20086;-78
2022/01/27 07:47:04;;;;;;;25.55;17.02;;;;;;;;;;5115670;27;20039;-78
2022/01/27 07:49:30;;;;;;;27.40;16.70;;;;;;;;;;5133376;27;20039;-79
2022/01/27 07:51:56;;;;;;;27.30;14.65;;;;;;;;;;5132957;27;20074;-78
2022/01/27 07:54:24;;;;;;;26.23;15.15;;;;;;;;;;5133294;27;20377;-79
2022/01/27 07:56:50;;;;;;;26.13;16.27;;;;;;;;;;5114510;28;20492;-79
2022/01/27 07:59:16;;;;;;;25.33;15.50;;;;;;;;;;5133240;27;20050;-80
2022/01/27 08:01:42;;;;;;;25.45;15.63;;;;;;;;;;5115540;28;20087;-80
2022/01/27 08:04:08;;;;;;;28.23;15.98;;;;;;;;;;5133765;27;20039;-80
2022/01/27 08:06:34;;;;;;;24.23;15.75;;;;;;;;;;5133579;27;20035;-82
2022/01/27 08:09:01;;;;;;;27.58;16.63;;;;;;;;;;5115513;28;20039;-80
2022/01/27 08:11:27;;;;;;;23.02;15.30;;;;;;;;;;5133581;28;20038;-80
2022/01/27 08:13:53;;;;;;;26.38;15.68;;;;;;;;;;5115243;28;20134;-81
2022/01/27 08:16:19;;;;;;;26.13;15.40;;;;;;;;;;5133315;28;20105;-81
2022/01/27 08:18:45;;;;;;;30.50;16.42;;;;;;;;;;5133810;28;20043;-81
2022/01/27 08:21:11;;;;;;;25.30;15.07;;;;;;;;;;5133326;28;20396;-81
2022/01/27 08:23:40;;;;;;;25.38;16.10;;;;;;;;;;5133414;28;20082;-79
2022/01/27 08:26:09;;;;;;;22.23;13.57;;;;;;;;;;5133317;28;20039;-80
2022/01/27 08:28:47;;;;;;;26.98;14.57;;;;;;;;;;5132897;28;20383;-80
2022/01/27 08:31:14;;;;;;;26.80;15.23;;;;;;;;;;5133650;28;20050;-79
2022/01/27 08:33:41;;;;;;;34.03;18.35;;;;;;;;;;5133238;28;20441;-79
2022/01/27 08:36:08;;;;;;;30.05;16.88;;;;;;;;;;5133363;28;20050;-81
2022/01/27 08:38:36;;;;;;;33.42;17.58;;;;;;;;;;5114984;28;20388;-80
2022/01/27 08:41:04;;;;;;;34.15;17.73;;;;;;;;;;5114962;28;20054;-81
2022/01/27 08:43:30;;;;;;;36.88;19.42;;;;;;;;;;5133131;28;20046;-81
2022/01/27 08:45:58;;;;;;;39.17;18.00;;;;;;;;;;5115095;28;20130;-80
2022/01/27 08:48:27;;;;;;;35.28;17.08;;;;;;;;;;5136264;27;20396;-79
2022/01/27 08:51:00;;;;;;;38.42;18.38;;;;;;;;;;5137163;27;20459;-78
2022/01/27 08:53:27;;;;;;;37.60;17.95;;;;;;;;;;5137461;27;20066;-79
2022/01/27 08:55:53;;;;;;;30.75;15.88;;;;;;;;;;5136652;27;20489;-80
2022/01/27 08:58:21;;;;;;;45.38;17.85;;;;;;;;;;5118566;27;20046;-79
2022/01/27 09:00:47;;;;;;;36.85;17.75;;;;;;;;;;5135887;27;20047;-80
2022/01/27 09:03:13;;;;;;;40.35;17.27;;;;;;;;;;5136869;27;20039;-80
2022/01/27 09:05:40;;;;;;;45.28;17.02;;;;;;;;;;5136787;27;20065;-80
2022/01/27 09:08:07;;;;;;;38.85;16.13;;;;;;;;;;5099268;28;20050;-80
2022/01/27 09:10:33;;;;;;;41.20;16.60;;;;;;;;;;5116158;28;20044;-79
2022/01/27 09:13:00;;;;;;;42.05;16.70;;;;;;;;;;5116085;28;20086;-79
2022/01/27 09:15:27;;;;;;;33.83;15.18;;;;;;;;;;5097948;28;20537;-80
2022/01/27 09:17:53;;;;;;;44.50;17.17;;;;;;;;;;5116278;28;20050;-75
2022/01/27 09:20:19;;;;;;;40.50;16.63;;;;;;;;;;5097773;28;20468;-73
2022/01/27 09:22:46;;;;;;;36.28;15.27;;;;;;;;;;5115879;28;20118;-76
2022/01/27 09:25:20;;;;;;;35.92;14.85;;;;;;;;;;5115979;28;20052;-74
2022/01/27 09:27:47;;;;;;;41.40;14.45;;;;;;;;;;5115797;28;20532;-80
2022/01/27 09:30:15;;;;;;;34.75;13.65;;;;;;;;;;5115769;28;20044;-81
2022/01/27 09:32:42;;;;;;;35.30;14.15;;;;;;;;;;5115533;28;20043;-81
2022/01/27 09:35:08;;;;;;;40.35;14.75;;;;;;;;;;5097127;28;20100;-80
2022/01/27 09:37:34;;;;;;;38.40;14.48;;;;;;;;;;5115705;28;20476;-80
2022/01/27 09:40:00;;;;;;;30.77;12.90;;;;;;;;;;5115844;28;20495;-81
2022/01/27 09:42:30;;;;;;;35.63;12.10;;;;;;;;;;5115612;28;20049;-79
2022/01/27 09:44:59;;;;;;;32.13;13.13;;;;;;;;;;5115644;28;20039;-78
2022/01/27 09:47:29;;;;;;;41.85;12.43;;;;;;;;;;5097194;28;20043;-80
2022/01/27 09:50:06;;;;;;;34.85;11.35;;;;;;;;;;5115417;28;20480;-82
2022/01/27 09:52:32;;;;;;;32.15;11.68;;;;;;;;;;5097084;28;20044;-79
2022/01/27 09:54:58;;;;;;;33.85;11.68;;;;;;;;;;5114971;28;20429;-80
2022/01/27 09:57:24;;;;;;;28.70;10.20;;;;;;;;;;5115527;28;20047;-80
2022/01/27 09:59:51;;;;;;;30.38;9.68;;;;;;;;;;5114465;28;20043;-80
2022/01/27 10:02:26;;;;;;;29.20;9.80;;;;;;;;;;5115210;28;20609;-80
2022/01/27 10:04:53;;;;;;;25.13;9.27;;;;;;;;;;5097102;28;20051;-80
2022/01/27 10:07:27;;;;;;;22.02;9.05;;;;;;;;;;5115257;28;20055;-79
2022/01/27 10:09:56;;;;;;;26.52;8.85;;;;;;;;;;5115012;28;20043;-80
2022/01/27 10:12:31;;;;;;;27.20;8.70;;;;;;;;;;5115005;28;20051;-79
2022/01/27 10:15:02;;;;;;;23.42;8.73;;;;;;;;;;5114847;28;20062;-80
2022/01/27 10:17:29;;;;;;;27.67;8.50;;;;;;;;;;5115088;28;20118;-80
2022/01/27 10:19:57;;;;;;;26.50;8.07;;;;;;;;;;5115084;28;20052;-81
2022/01/27 10:22:23;;;;;;;23.42;8.18;;;;;;;;;;5096739;28;20052;-80
2022/01/27 10:25:00;;;;;;;26.95;8.48;;;;;;;;;;5114737;28;20051;-81
2022/01/27 10:27:45;;;;;;;28.90;8.15;;;;;;;;;;5114463;28;20046;-80
2022/01/27 10:32:49;;;;;;;25.40;8.15;;;;;;;;;;5114718;28;20046;-80
2022/01/27 10:35:16;;;;;;;26.35;8.85;;;;;;;;;;5114431;28;20108;-79
2022/01/27 10:37:59;;;;;;;24.77;7.45;;;;;;;;;;5114429;28;20118;-81
2022/01/27 10:40:31;;;;;;;23.33;6.35;;;;;;;;;;5114440;28;20106;-80
2022/01/27 10:42:59;;;;;;;22.77;6.43;;;;;;;;;;5114391;28;20040;-80
2022/01/27 10:45:26;;;;;;;26.95;7.90;;;;;;;;;;5114239;28;20438;-79
2022/01/27 10:47:52;;;;;;;25.50;6.95;;;;;;;;;;5096181;28;20095;-80
2022/01/27 10:50:19;;;;;;;23.17;7.30;;;;;;;;;;5114139;28;20124;-79
2022/01/27 10:52:52;;;;;;;24.50;6.55;;;;;;;;;;5114307;28;20079;-80
2022/01/27 10:55:20;;;;;;;19.42;6.50;;;;;;;;;;5095126;28;20067;-80
2022/01/27 10:57:50;;;;;;;20.38;5.82;;;;;;;;;;5114340;28;20078;-80
2022/01/27 11:00:23;;;;;;;26.13;6.10;;;;;;;;;;5114190;28;20047;-81
2022/01/27 11:02:50;;;;;;;24.90;5.57;;;;;;;;;;5113761;28;20666;-80
2022/01/27 11:05:16;;;;;;;23.00;6.47;;;;;;;;;;5114112;28;20130;-81
2022/01/27 11:07:43;;;;;;;21.50;6.45;;;;;;;;;;5114068;28;20039;-80
2022/01/27 11:10:09;;;;;;;24.77;5.95;;;;;;;;;;5113161;28;20039;-80
2022/01/27 11:12:36;;;;;;;21.25;5.72;;;;;;;;;;5095424;28;20090;-79
2022/01/27 11:15:02;;;;;;;21.45;5.65;;;;;;;;;;5113689;28;20122;-81
2022/01/27 11:17:33;;;;;;;21.60;6.22;;;;;;;;;;5095635;28;20078;-80
2022/01/27 11:22:43;;;;;;;19.27;4.82;;;;;;;;;;5113756;28;19919;-79
2022/01/27 11:27:45;;;;;;;23.20;4.85;;;;;;;;;;5113381;28;20044;-79
2022/01/27 11:30:17;;;;;;;21.98;4.90;;;;;;;;;;5113584;28;20123;-81
2022/01/27 11:32:52;;;;;;;23.52;5.15;;;;;;;;;;5095166;28;20070;-80
2022/01/27 11:35:19;;;;;;;19.83;5.55;;;;;;;;;;5113498;28;20043;-80
2022/01/27 11:37:50;;;;;;;22.38;5.13;;;;;;;;;;5113357;28;20131;-81
2022/01/27 11:40:18;;;;;;;25.30;5.00;;;;;;;;;;5113351;28;20476;-80
2022/01/27 11:42:59;;;;;;;23.02;5.18;;;;;;;;;;5113555;28;20273;-79
2022/01/27 11:45:28;;;;;;;20.92;5.00;;;;;;;;;;5113443;28;20218;-80
2022/01/27 11:47:56;;;;;;;23.55;5.28;;;;;;;;;;5113291;28;20051;-81
2022/01/27 11:50:35;;;;;;;17.52;4.60;;;;;;;;;;5095124;28;20035;-79
2022/01/27 11:53:08;;;;;;;19.17;4.30;;;;;;;;;;5113305;28;20047;-77
2022/01/27 11:55:34;;;;;;;22.70;5.13;;;;;;;;;;5094580;28;20097;-79
2022/01/27 11:58:01;;;;;;;19.85;4.72;;;;;;;;;;5094897;28;20058;-82
2022/01/27 12:00:28;;;;;;;20.63;4.28;;;;;;;;;;5113181;28;20122;-80
2022/01/27 12:02:57;;;;;;;26.15;4.47;;;;;;;;;;5112835;28;20046;-80
2022/01/27 12:05:24;;;;;;;25.33;4.68;;;;;;;;;;5112970;28;20443;-79
2022/01/27 12:08:08;;;;;;;21.45;4.40;;;;;;;;;;5112974;28;20153;-79
2022/01/27 12:10:41;;;;;;;18.77;4.13;;;;;;;;;;5095197;28;20157;-79
2022/01/27 12:13:39;;;;;;;21.30;4.30;;;;;;;;;;5112870;28;20039;-80
2022/01/27 12:19:04;;;;;;;26.23;4.63;;;;;;;;;;5113031;28;20039;-79
2022/01/27 12:21:30;;;;;;;22.00;4.50;;;;;;;;;;5078018;28;20083;-80
2022/01/27 12:24:12;;;;;;;25.65;4.40;;;;;;;;;;5117072;28;20040;-79
2022/01/27 12:26:46;;;;;;;21.23;3.97;;;;;;;;;;5099284;28;20039;-79
2022/01/27 12:29:12;;;;;;;25.88;4.22;;;;;;;;;;5117012;28;20046;-79
2022/01/27 12:31:39;;;;;;;19.27;4.05;;;;;;;;;;5115527;28;20126;-80
2022/01/27 12:34:05;;;;;;;21.30;4.38;;;;;;;;;;5115813;28;20050;-80
2022/01/27 12:36:32;;;;;;;18.98;3.90;;;;;;;;;;5116570;28;20071;-79
2022/01/27 12:38:58;;;;;;;17.02;4.05;;;;;;;;;;5098677;28;20126;-79
2022/01/27 12:41:24;;;;;;;22.30;4.10;;;;;;;;;;5116945;28;20043;-80
2022/01/27 12:43:51;;;;;;;18.38;3.80;;;;;;;;;;5116654;28;20079;-80
2022/01/27 12:46:17;;;;;;;25.95;4.32;;;;;;;;;;5116803;28;20049;-80
2022/01/27 12:48:47;;;;;;;24.33;3.72;;;;;;;;;;5098618;28;20092;-79
2022/01/27 12:51:13;;;;;;;22.65;3.65;;;;;;;;;;5116511;28;20054;-80
2022/01/27 12:53:39;;;;;;;25.35;3.58;;;;;;;;;;5098685;28;20043;-80
2022/01/27 12:56:09;;;;;;;22.67;3.88;;;;;;;;;;5116328;28;20052;-78
2022/01/27 12:58:36;;;;;;;21.67;3.78;;;;;;;;;;5116539;28;20056;-79
2022/01/27 13:01:02;;;;;;;19.60;3.78;;;;;;;;;;5098235;28;20040;-79
2022/01/27 13:03:28;;;;;;;20.40;3.58;;;;;;;;;;5116420;28;20454;-79
2022/01/27 13:05:59;;;;;;;24.00;3.83;;;;;;;;;;5116181;28;20039;-78
2022/01/27 13:08:29;;;;;;;18.30;3.50;;;;;;;;;;5116330;28;20101;-80
2022/01/27 13:10:58;;;;;;;22.45;3.67;;;;;;;;;;5098189;28;20047;-79
2022/01/27 13:13:29;;;;;;;20.08;4.00;;;;;;;;;;5116050;28;20495;-79
2022/01/27 13:15:56;;;;;;;21.00;3.80;;;;;;;;;;5116053;28;20051;-80
2022/01/27 13:18:29;;;;;;;21.75;3.63;;;;;;;;;;5115928;28;20084;-79
2022/01/27 13:20:58;;;;;;;23.40;3.80;;;;;;;;;;5116314;28;20047;-79
2022/01/27 13:25:54;;;;;;;19.98;3.10;;;;;;;;;;5115962;28;20378;-79
2022/01/27 13:28:23;;;;;;;16.08;3.25;;;;;;;;;;5115895;28;20040;-79
2022/01/27 13:30:54;;;;;;;22.50;3.97;;;;;;;;;;5115361;28;20123;-79
2022/01/27 13:33:22;;;;;;;26.67;4.13;;;;;;;;;;5096744;28;20044;-79
2022/01/27 13:35:49;;;;;;;20.02;3.67;;;;;;;;;;5115354;28;20043;-79
2022/01/27 13:43:35;;;;;;;24.10;3.95;;;;;;;;;;5115815;28;20048;-79
2022/01/27 13:46:01;;;;;;;21.42;3.50;;;;;;;;;;5097730;28;20040;-79
2022/01/27 13:48:27;;;;;;;20.38;3.40;;;;;;;;;;5115607;28;20122;-78
2022/01/27 13:51:00;;;;;;;24.48;4.43;;;;;;;;;;5097529;28;20054;-79
2022/01/27 13:53:26;;;;;;;29.08;3.45;;;;;;;;;;5115320;28;20047;-80
2022/01/27 13:56:04;;;;;;;26.05;4.13;;;;;;;;;;5115250;28;20054;-79
2022/01/27 13:58:30;;;;;;;22.33;4.07;;;;;;;;;;5115138;28;20051;-79
2022/01/27 14:01:23;;;;;;;25.00;3.95;;;;;;;;;;5115245;28;20048;-80
2022/01/27 14:03:49;;;;;;;21.73;4.32;;;;;;;;;;5111559;28;20493;-80
2022/01/27 14:06:15;;;;;;;13.65;3.22;;;;;;;;;;5115016;28;20079;-79
2022/01/27 14:08:44;;;;;;;20.25;3.78;;;;;;;;;;5115352;28;20039;-79
2022/01/27 14:11:15;;;;;;;25.20;3.80;;;;;;;;;;5115034;28;20043;-80
2022/01/27 14:13:42;;;;;;;;;;;;;;;;;;5115599;28;20051;-79
2022/01/27 14:16:09;;;;;;;24.65;4.28;;;;;;;;;;5114969;28;19919;-80
2022/01/27 14:18:43;;;;;;;29.58;3.83;;;;;;;;;;5114774;28;20494;-79
2022/01/27 14:21:09;;;;;;;25.13;3.92;;;;;;;;;;5115075;28;20563;-79
2022/01/27 14:23:46;;;;;;;24.33;4.28;;;;;;;;;;5096742;28;20240;-79
2022/01/27 14:28:59;;;;;;;18.95;3.05;;;;;;;;;;5114632;28;20177;-79
2022/01/27 14:31:25;;;;;;;20.88;4.32;;;;;;;;;;5114759;28;20043;-80
2022/01/27 14:33:51;;;;;;;23.80;3.20;;;;;;;;;;5096795;28;20046;-80
2022/01/27 14:36:18;;;;;;;19.35;3.33;;;;;;;;;;5114496;28;20061;-80
2022/01/27 14:38:44;;;;;;;20.23;3.13;;;;;;;;;;5114501;28;20047;-78
2022/01/27 14:41:11;;;;;;;23.13;3.72;;;;;;;;;;5096359;28;20054;-79
2022/01/27 14:43:39;;;;;;;22.02;3.78;;;;;;;;;;5096397;28;20043;-78
2022/01/27 14:46:06;;;;;;;21.65;4.20;;;;;;;;;;5114253;28;20039;-78
2022/01/27 14:48:37;;;;;;;20.02;3.58;;;;;;;;;;5114487;28;20039;-79
2022/01/27 14:51:04;;;;;;;22.50;3.75;;;;;;;;;;5114370;28;20066;-80
2022/01/27 14:53:30;;;;;;;22.13;3.53;;;;;;;;;;5114225;28;20035;-79
2022/01/27 14:55:56;;;;;;;26.45;3.80;;;;;;;;;;5111900;28;20506;-78
2022/01/27 14:58:22;;;;;;;22.52;3.83;;;;;;;;;;5114029;28;20058;-79
2022/01/27 15:00:48;;;;;;;24.27;3.55;;;;;;;;;;5113472;28;20370;-78
2022/01/27 15:03:14;;;;;;;25.23;3.92;;;;;;;;;;5114061;28;20127;-79
2022/01/27 15:05:40;;;;;;;24.65;3.40;;;;;;;;;;5114101;28;20043;-80
2022/01/27 15:08:07;;;;;;;20.08;2.90;;;;;;;;;;5113969;28;20047;-80
2022/01/27 15:10:33;;;;;;;24.80;3.67;;;;;;;;;;5113812;28;20051;-78
2022/01/27 15:12:59;;;;;;;19.55;2.83;;;;;;;;;;5078856;28;20123;-80
2022/01/27 15:21:00;;;;;;;22.38;3.75;;;;;;;;;;5113552;28;20134;-79
2022/01/27 15:23:27;;;;;;;21.33;3.13;;;;;;;;;;5113944;28;20035;-79
2022/01/27 15:25:55;;;;;;;22.65;3.40;;;;;;;;;;5113449;28;20059;-79
2022/01/27 15:28:21;;;;;;;32.40;4.20;;;;;;;;;;5113661;28;20051;-78
2022/01/27 15:30:47;;;;;;;18.80;3.28;;;;;;;;;;5113643;28;20043;-80
2022/01/27 15:33:13;;;;;;;26.00;3.83;;;;;;;;;;5113341;28;20465;-79
2022/01/27 15:35:40;;;;;;;20.50;3.10;;;;;;;;;;5113350;28;20127;-78